Tetraktys — OS6207 — position and weather

sailwx.info

Track history (hours):
 
Tides and Currents Weather Stations Pressure Air Temp Water Temp Dewpoint Dewpoint Depression Visibility Wind Speed Wind Dir Waves Ship Positions

Tetraktys

Last reported at 2018-Apr-18 12:34 UTC. Time now 2018-Apr-22 16:35 UTC.
Position N 38°18' E 015°32'.

Length 9 m.

Type: Sailing vessel. MMSI: 205620700.

Date/timePositionNaut miles runAvg speedWind from/ knotsBaromVisibWave heightAir tempDewpointWater temp
2018-Apr-18 12:34N 38°18' E 015°32'1 5.3
2018-Apr-18 12:18N 38°18' E 015°31'2 5.4
2018-Apr-18 11:58N 38°18' E 015°28'3 6.4
2018-Apr-18 11:30N 38°19' E 015°24'3 6.4
2018-Apr-18 10:58N 38°19' E 015°20'4 6.6
2018-Apr-18 10:23N 38°19' E 015°15'3 5.9
2018-Apr-18 09:55N 38°19' E 015°12'84 6.0
2018-Apr-17 19:54N 38°15' E 013°25'3 5.7
2018-Apr-17 19:26N 38°15' E 013°21'5 5.3
2018-Apr-17 18:25N 38°15' E 013°15'2 5.1
2018-Apr-17 18:01N 38°15' E 013°12'  
Track history (hours):
 
Tides and Currents Weather Stations Pressure Air Temp Water Temp Dewpoint Dewpoint Depression Visibility Wind Speed Wind Dir Waves Ship Positions

Tetraktys

Last reported at 2018-Apr-18 12:34 UTC. Time now 2018-Apr-22 16:35 UTC.
Position N 38°18' E 015°32'.

Length 9 m.

Type: Sailing vessel. MMSI: 205620700.

Date/timePositionNaut miles runAvg speedWind from/ knotsBaromVisibWave heightAir tempDewpointWater temp
2018-Apr-18 12:34N 38°18' E 015°32'1 5.3
2018-Apr-18 12:18N 38°18' E 015°31'2 5.4
2018-Apr-18 11:58N 38°18' E 015°28'3 6.4
2018-Apr-18 11:30N 38°19' E 015°24'3 6.4
2018-Apr-18 10:58N 38°19' E 015°20'4 6.6
2018-Apr-18 10:23N 38°19' E 015°15'3 5.9
2018-Apr-18 09:55N 38°19' E 015°12'84 6.0
2018-Apr-17 19:54N 38°15' E 013°25'3 5.7
2018-Apr-17 19:26N 38°15' E 013°21'5 5.3
2018-Apr-17 18:25N 38°15' E 013°15'2 5.1
2018-Apr-17 18:01N 38°15' E 013°12'  

Dump ship's entire track history